createdAt,value
2018-06-07T00:00:30.937Z,0.00
2018-06-07T00:01:30.966Z,0.00
2018-06-07T00:02:31.018Z,0.00
2018-06-07T00:03:31.066Z,0.00
2018-06-07T00:04:31.118Z,0.00
2018-06-07T00:05:31.192Z,0.00
2018-06-07T00:06:31.219Z,0.00
2018-06-07T00:07:31.274Z,0.00
2018-06-07T00:08:31.324Z,0.00
2018-06-07T00:09:31.371Z,0.00
2018-06-07T00:10:31.455Z,0.00
2018-06-07T00:11:31.471Z,0.00
2018-06-07T00:12:31.525Z,0.00
2018-06-07T00:13:31.573Z,0.00
2018-06-07T00:14:31.625Z,0.00
2018-06-07T00:15:31.705Z,0.00
2018-06-07T00:16:31.725Z,0.00
2018-06-07T00:17:31.777Z,0.00
2018-06-07T00:18:31.828Z,0.00
2018-06-07T00:19:31.877Z,0.00
2018-06-07T00:20:31.967Z,0.00
2018-06-07T00:21:31.981Z,0.00
2018-06-07T00:22:32.028Z,0.00
2018-06-07T00:23:32.078Z,0.00
2018-06-07T00:24:32.128Z,0.00
2018-06-07T00:25:32.208Z,0.00
2018-06-07T00:26:32.259Z,0.00
2018-06-07T00:27:32.283Z,0.00
2018-06-07T00:28:32.332Z,0.00
2018-06-07T00:29:32.384Z,0.00
2018-06-07T00:30:32.433Z,0.00
2018-06-07T00:31:32.518Z,0.00
2018-06-07T00:32:32.535Z,0.00
2018-06-07T00:33:32.584Z,0.00
2018-06-07T00:34:32.635Z,0.00
2018-06-07T00:35:32.686Z,0.00
2018-06-07T00:36:32.763Z,0.00
2018-06-07T00:37:32.787Z,0.00
2018-06-07T00:38:32.842Z,0.00
2018-06-07T00:39:32.887Z,0.00
2018-06-07T00:40:32.940Z,0.00
2018-06-07T00:41:33.015Z,0.00
2018-06-07T00:42:33.067Z,0.00
2018-06-07T00:43:33.090Z,0.00
2018-06-07T00:44:33.143Z,0.00
2018-06-07T00:45:33.194Z,0.00
2018-06-07T00:46:33.242Z,0.00
2018-06-07T00:47:33.316Z,0.00
2018-06-07T00:48:33.344Z,0.00
2018-06-07T00:49:33.396Z,0.00
2018-06-07T00:50:33.446Z,0.00
2018-06-07T00:51:33.494Z,0.00
2018-06-07T00:52:33.577Z,0.00
2018-06-07T00:53:33.595Z,0.00
2018-06-07T00:54:33.647Z,0.00
2018-06-07T00:55:33.696Z,0.00
2018-06-07T00:56:33.747Z,0.00
2018-06-07T00:57:33.836Z,0.00
2018-06-07T00:58:33.848Z,0.00
2018-06-07T00:59:33.900Z,0.00
2018-06-07T01:00:33.950Z,0.00
2018-06-07T01:01:34.005Z,0.00
2018-06-07T01:02:34.084Z,0.00
2018-06-07T01:03:34.102Z,0.00
2018-06-07T01:04:34.155Z,0.00
2018-06-07T01:05:34.200Z,0.00
2018-06-07T01:06:34.255Z,0.00
2018-06-07T01:07:34.325Z,0.00
2018-06-07T01:08:34.379Z,0.00
2018-06-07T01:09:34.401Z,0.00
2018-06-07T01:10:34.465Z,0.00
2018-06-07T01:11:34.504Z,0.00
2018-06-07T01:12:34.553Z,0.00
2018-06-07T01:13:34.632Z,0.00
2018-06-07T01:14:34.655Z,0.00
2018-06-07T01:15:34.709Z,0.00
2018-06-07T01:16:34.754Z,0.00
2018-06-07T01:17:34.836Z,0.00
2018-06-07T01:18:34.891Z,0.00
2018-06-07T01:19:34.908Z,0.00
2018-06-07T01:20:34.957Z,0.00
2018-06-07T01:21:35.009Z,0.00
2018-06-07T01:22:35.059Z,0.00
2018-06-07T01:23:35.152Z,0.00
2018-06-07T01:24:35.158Z,0.00
2018-06-07T01:25:35.211Z,0.00
2018-06-07T01:26:35.262Z,0.00
2018-06-07T01:27:35.313Z,0.00
2018-06-07T01:28:35.383Z,0.00
2018-06-07T01:29:35.435Z,0.00
2018-06-07T01:30:35.460Z,0.00
2018-06-07T01:31:35.512Z,0.00
2018-06-07T01:32:35.563Z,0.00
2018-06-07T01:33:35.619Z,0.00
2018-06-07T01:34:35.688Z,0.00
2018-06-07T01:35:35.713Z,0.00
2018-06-07T01:36:35.764Z,0.00
2018-06-07T01:37:35.818Z,0.00
2018-06-07T01:38:35.871Z,0.00
2018-06-07T01:39:36.729Z,0.00
2018-06-07T01:40:35.964Z,0.00
2018-06-07T01:41:36.016Z,0.00
2018-06-07T01:42:36.073Z,0.00
2018-06-07T01:43:36.116Z,0.00
2018-06-07T01:44:36.199Z,0.00
2018-06-07T01:45:36.218Z,0.00
2018-06-07T01:46:36.270Z,0.00
2018-06-07T01:47:36.320Z,0.00
2018-06-07T01:48:36.371Z,0.00
2018-06-07T01:49:36.456Z,0.00
2018-06-07T01:50:36.470Z,0.00
2018-06-07T01:51:36.520Z,0.00
2018-06-07T01:52:36.575Z,0.00
2018-06-07T01:53:36.623Z,0.00
2018-06-07T01:54:36.698Z,0.00
2018-06-07T01:55:36.751Z,0.00
2018-06-07T01:56:36.774Z,0.00
2018-06-07T01:57:36.899Z,0.00
2018-06-07T01:58:36.878Z,0.00
2018-06-07T01:59:36.926Z,0.00
2018-06-07T02:00:37.030Z,0.00
2018-06-07T02:01:37.029Z,0.00
2018-06-07T02:02:37.076Z,0.00
2018-06-07T02:03:37.129Z,0.00
2018-06-07T02:04:37.178Z,0.00
2018-06-07T02:05:37.261Z,0.00
2018-06-07T02:06:37.303Z,0.00
2018-06-07T02:07:37.331Z,0.00
2018-06-07T02:08:37.380Z,0.00
2018-06-07T02:09:37.431Z,0.00
2018-06-07T02:10:37.508Z,0.00
2018-06-07T02:11:37.533Z,0.00
2018-06-07T02:12:37.582Z,0.00
2018-06-07T02:13:37.632Z,0.00
2018-06-07T02:14:37.683Z,0.00
2018-06-07T02:15:37.772Z,0.00
2018-06-07T02:16:37.785Z,0.00
2018-06-07T02:17:37.836Z,0.00
2018-06-07T02:18:37.886Z,0.00
2018-06-07T02:19:37.935Z,0.00
2018-06-07T02:20:38.018Z,0.00
2018-06-07T02:21:38.040Z,0.00
2018-06-07T02:22:38.090Z,0.00
2018-06-07T02:23:38.142Z,0.00
2018-06-07T02:24:38.190Z,0.00
2018-06-07T02:25:38.273Z,0.00
2018-06-07T02:26:38.293Z,0.00
2018-06-07T02:27:38.340Z,0.00
2018-06-07T02:28:38.391Z,0.00
2018-06-07T02:29:38.443Z,0.00
2018-06-07T02:30:38.521Z,0.00
2018-06-07T02:31:38.569Z,0.00
2018-06-07T02:32:38.598Z,0.00
2018-06-07T02:33:38.647Z,0.00
2018-06-07T02:34:38.698Z,0.00
2018-06-07T02:35:38.746Z,0.00
2018-06-07T02:36:38.821Z,0.00
2018-06-07T02:37:38.850Z,0.00
2018-06-07T02:38:38.901Z,0.00
2018-06-07T02:39:39.747Z,0.00
2018-06-07T02:40:39.003Z,0.00
2018-06-07T02:41:39.078Z,0.00
2018-06-07T02:42:39.103Z,0.00
2018-06-07T02:43:39.151Z,0.00
2018-06-07T02:44:39.203Z,0.00
2018-06-07T02:45:39.260Z,0.00
2018-06-07T02:46:39.334Z,0.00
2018-06-07T02:47:39.783Z,0.00
2018-06-07T02:48:39.409Z,0.00
2018-06-07T02:49:39.459Z,0.00
2018-06-07T02:50:39.507Z,0.00
2018-06-07T02:51:39.556Z,0.00
2018-06-07T02:52:39.632Z,0.00
2018-06-07T02:53:39.659Z,0.00
2018-06-07T02:54:39.711Z,0.00
2018-06-07T02:55:39.761Z,0.00
2018-06-07T02:56:39.813Z,0.00
2018-06-07T02:57:39.895Z,0.00
2018-06-07T02:58:39.915Z,0.00
2018-06-07T02:59:39.963Z,0.00
2018-06-07T03:00:40.014Z,0.00
2018-06-07T03:01:40.069Z,0.00
2018-06-07T03:02:40.140Z,0.00
2018-06-07T03:03:40.169Z,0.00
2018-06-07T03:04:40.219Z,0.00
2018-06-07T03:05:40.269Z,0.00
2018-06-07T03:06:40.322Z,0.00
2018-06-07T03:07:40.392Z,0.00
2018-06-07T03:08:40.443Z,0.00
2018-06-07T03:09:40.473Z,0.00
2018-06-07T03:10:40.529Z,0.00
2018-06-07T03:11:40.572Z,0.00
2018-06-07T03:12:40.626Z,0.00
2018-06-07T03:13:40.710Z,0.00
2018-06-07T03:14:40.731Z,0.00
2018-06-07T03:15:40.774Z,0.00
2018-06-07T03:16:40.827Z,0.00
2018-06-07T03:17:40.878Z,0.00
2018-06-07T03:18:41.001Z,0.00
2018-06-07T03:19:40.995Z,0.00
2018-06-07T03:20:41.028Z,0.00
2018-06-07T03:21:41.079Z,0.00
2018-06-07T03:22:41.130Z,0.00
2018-06-07T03:23:41.211Z,0.00
2018-06-07T03:24:41.230Z,0.00
2018-06-07T03:25:41.282Z,0.00
2018-06-07T03:26:41.335Z,0.00
2018-06-07T03:27:41.383Z,0.00
2018-06-07T03:28:41.468Z,0.00
2018-06-07T03:29:41.485Z,5.63
2018-06-07T03:30:41.537Z,5.63
2018-06-07T03:31:41.588Z,5.63
2018-06-07T03:32:41.638Z,5.63
2018-06-07T03:33:41.711Z,5.63
2018-06-07T03:34:41.763Z,5.63
2018-06-07T03:35:41.796Z,5.63
2018-06-07T03:36:41.839Z,5.63
2018-06-07T03:37:41.892Z,11.25
2018-06-07T03:38:41.941Z,11.25
2018-06-07T03:39:42.017Z,11.25
2018-06-07T03:40:42.042Z,11.25
2018-06-07T03:41:42.094Z,11.25
2018-06-07T03:42:42.144Z,16.88
2018-06-07T03:43:42.194Z,16.88
2018-06-07T03:44:42.280Z,16.88
2018-06-07T03:45:42.296Z,16.88
2018-06-07T03:46:42.347Z,22.50
2018-06-07T03:47:42.396Z,22.50
2018-06-07T03:48:42.451Z,22.50
2018-06-07T03:49:42.531Z,28.13
2018-06-07T03:50:42.553Z,28.13
2018-06-07T03:51:42.602Z,28.13
2018-06-07T03:52:42.697Z,28.13
2018-06-07T03:53:42.701Z,33.75
2018-06-07T03:54:42.790Z,33.75
2018-06-07T03:55:42.803Z,33.75
2018-06-07T03:56:42.857Z,39.38
2018-06-07T03:57:42.909Z,39.38
2018-06-07T03:58:42.956Z,45.00
2018-06-07T03:59:43.055Z,45.00
2018-06-07T04:00:43.060Z,45.00
2018-06-07T04:01:43.112Z,39.38
2018-06-07T04:02:43.158Z,39.38
2018-06-07T04:03:43.208Z,45.00
2018-06-07T04:04:43.283Z,45.00
2018-06-07T04:05:43.336Z,45.00
2018-06-07T04:06:43.366Z,45.00
2018-06-07T04:07:43.412Z,50.63
2018-06-07T04:08:43.464Z,56.25
2018-06-07T04:09:43.546Z,56.25
2018-06-07T04:10:43.565Z,61.88
2018-06-07T04:11:43.617Z,67.50
2018-06-07T04:12:43.665Z,73.13
2018-06-07T04:13:43.725Z,73.13
2018-06-07T04:14:43.814Z,73.13
2018-06-07T04:15:43.822Z,73.13
2018-06-07T04:16:43.870Z,73.13
2018-06-07T04:17:43.920Z,73.13
2018-06-07T04:18:43.971Z,73.13
2018-06-07T04:19:44.064Z,73.13
2018-06-07T04:20:44.074Z,67.50
2018-06-07T04:21:44.124Z,67.50
2018-06-07T04:22:44.175Z,67.50
2018-06-07T04:23:44.229Z,73.13
2018-06-07T04:24:44.307Z,73.13
2018-06-07T04:25:44.331Z,73.13
2018-06-07T04:26:44.379Z,73.13
2018-06-07T04:27:44.432Z,78.75
2018-06-07T04:28:44.505Z,78.75
2018-06-07T04:29:44.533Z,78.75
2018-06-07T04:30:44.583Z,78.75
2018-06-07T04:31:44.632Z,78.75
2018-06-07T04:32:44.685Z,78.75
2018-06-07T04:33:44.764Z,78.75
2018-06-07T04:34:44.793Z,78.75
2018-06-07T04:35:44.863Z,73.13
2018-06-07T04:36:44.892Z,73.13
2018-06-07T04:37:44.941Z,78.75
2018-06-07T04:38:45.002Z,78.75
2018-06-07T04:39:45.066Z,78.75
2018-06-07T04:40:45.119Z,78.75
2018-06-07T04:41:45.148Z,78.75
2018-06-07T04:42:45.196Z,84.38
2018-06-07T04:43:45.248Z,84.38
2018-06-07T04:44:45.300Z,90.00
2018-06-07T04:45:45.983Z,90.00
2018-06-07T04:46:45.404Z,90.00
2018-06-07T04:47:45.465Z,90.00
2018-06-07T04:48:45.504Z,90.00
2018-06-07T04:49:45.556Z,90.00
2018-06-07T04:50:45.635Z,95.63
2018-06-07T04:51:45.656Z,95.63
2018-06-07T04:52:46.486Z,95.63
2018-06-07T04:53:45.758Z,95.63
2018-06-07T04:54:45.812Z,90.00
2018-06-07T04:55:46.318Z,84.38
2018-06-07T04:56:45.913Z,84.38
2018-06-07T04:57:45.969Z,84.38
2018-06-07T04:58:46.015Z,84.38
2018-06-07T04:59:46.069Z,84.38
2018-06-07T05:00:46.151Z,90.00
2018-06-07T05:01:46.176Z,90.00
2018-06-07T05:02:46.223Z,95.63
2018-06-07T05:03:46.273Z,95.63
2018-06-07T05:04:46.326Z,95.63
2018-06-07T05:05:46.412Z,95.63
2018-06-07T05:06:46.445Z,95.63
2018-06-07T05:07:46.478Z,95.63
2018-06-07T05:08:46.528Z,101.25
2018-06-07T05:09:46.580Z,101.25
2018-06-07T05:10:46.674Z,101.25
2018-06-07T05:11:46.685Z,101.25
2018-06-07T05:12:46.732Z,101.25
2018-06-07T05:13:46.786Z,95.63
2018-06-07T05:14:46.835Z,95.63
2018-06-07T05:15:46.913Z,90.00
2018-06-07T05:16:46.938Z,90.00
2018-06-07T05:17:47.325Z,90.00
2018-06-07T05:18:47.040Z,84.38
2018-06-07T05:19:47.091Z,84.38
2018-06-07T05:20:47.147Z,84.38
2018-06-07T05:21:47.195Z,90.00
2018-06-07T05:22:47.271Z,95.63
2018-06-07T05:23:47.298Z,95.63
2018-06-07T05:24:47.363Z,95.63
2018-06-07T05:25:47.402Z,95.63
2018-06-07T05:26:47.453Z,95.63
2018-06-07T05:27:47.525Z,101.25
2018-06-07T05:28:47.557Z,106.88
2018-06-07T05:29:47.608Z,118.13
2018-06-07T05:30:47.658Z,123.75
2018-06-07T05:31:47.710Z,135.00
2018-06-07T05:32:47.783Z,140.63
2018-06-07T05:33:47.835Z,140.63
2018-06-07T05:34:47.862Z,140.63
2018-06-07T05:35:47.913Z,146.25
2018-06-07T05:36:47.966Z,151.88
2018-06-07T05:37:48.038Z,157.50
2018-06-07T05:38:48.090Z,163.13
2018-06-07T05:39:48.141Z,151.88
2018-06-07T05:40:48.173Z,146.25
2018-06-07T05:41:48.231Z,151.88
2018-06-07T05:42:48.274Z,163.13
2018-06-07T05:43:48.325Z,163.13
2018-06-07T05:44:48.400Z,163.13
2018-06-07T05:45:48.426Z,163.13
2018-06-07T05:46:48.482Z,157.50
2018-06-07T05:47:48.529Z,157.50
2018-06-07T05:48:48.622Z,163.13
2018-06-07T05:49:48.667Z,168.75
2018-06-07T05:50:48.684Z,174.38
2018-06-07T05:51:48.747Z,180.00
2018-06-07T05:52:48.786Z,191.25
2018-06-07T05:53:48.837Z,196.88
2018-06-07T05:54:48.912Z,202.50
2018-06-07T05:55:48.941Z,202.50
2018-06-07T05:56:48.994Z,208.13
2018-06-07T05:57:49.044Z,219.38
2018-06-07T05:58:49.095Z,225.00
2018-06-07T05:59:49.187Z,236.25
2018-06-07T06:00:49.200Z,241.88
2018-06-07T06:01:49.254Z,247.50
2018-06-07T06:02:49.333Z,247.50
2018-06-07T06:03:49.356Z,247.50
2018-06-07T06:04:49.427Z,247.50
2018-06-07T06:05:49.457Z,253.13
2018-06-07T06:06:49.513Z,253.13
2018-06-07T06:07:49.618Z,253.13
2018-06-07T06:08:50.307Z,253.13
2018-06-07T06:09:49.722Z,258.75
2018-06-07T06:10:49.738Z,253.13
2018-06-07T06:11:49.768Z,258.75
2018-06-07T06:12:49.821Z,258.75
2018-06-07T06:13:49.870Z,264.38
2018-06-07T06:14:49.948Z,264.38
2018-06-07T06:15:49.998Z,270.00
2018-06-07T06:16:50.026Z,270.00
2018-06-07T06:17:50.077Z,270.00
2018-06-07T06:18:50.136Z,275.63
2018-06-07T06:19:50.206Z,275.63
2018-06-07T06:20:50.258Z,281.25
2018-06-07T06:21:50.292Z,281.25
2018-06-07T06:22:50.335Z,286.88
2018-06-07T06:23:50.386Z,292.50
2018-06-07T06:24:50.441Z,292.50
2018-06-07T06:25:50.525Z,298.13
2018-06-07T06:26:50.545Z,298.13
2018-06-07T06:27:50.618Z,298.13
2018-06-07T06:28:50.648Z,292.50
2018-06-07T06:29:50.699Z,292.50
2018-06-07T06:30:50.779Z,292.50
2018-06-07T06:31:50.802Z,298.13
2018-06-07T06:32:50.855Z,298.13
2018-06-07T06:33:50.908Z,298.13
2018-06-07T06:34:50.959Z,298.13
2018-06-07T06:35:51.043Z,298.13
2018-06-07T06:36:51.070Z,298.13
2018-06-07T06:37:51.123Z,298.13
2018-06-07T06:38:51.167Z,292.50
2018-06-07T06:39:51.228Z,292.50
2018-06-07T06:40:51.303Z,298.13
2018-06-07T06:41:51.330Z,298.13
2018-06-07T06:42:51.373Z,298.13
2018-06-07T06:43:51.427Z,303.75
2018-06-07T06:44:51.478Z,309.38
2018-06-07T06:45:51.557Z,315.00
2018-06-07T06:46:51.606Z,320.63
2018-06-07T06:47:51.637Z,337.50
2018-06-07T06:48:51.687Z,354.38
2018-06-07T06:49:51.740Z,371.25
2018-06-07T06:50:51.791Z,376.88
2018-06-07T06:51:51.865Z,393.75
2018-06-07T06:52:51.896Z,405.00
2018-06-07T06:53:51.949Z,421.88
2018-06-07T06:54:52.001Z,421.88
2018-06-07T06:55:52.050Z,427.50
2018-06-07T06:56:52.129Z,433.13
2018-06-07T06:57:52.157Z,433.13
2018-06-07T06:58:52.206Z,438.75
2018-06-07T06:59:52.264Z,444.38
2018-06-07T07:00:52.311Z,444.38
2018-06-07T07:01:52.397Z,450.00
2018-06-07T07:02:52.418Z,455.63
2018-06-07T07:03:52.497Z,450.00
2018-06-07T07:04:52.523Z,450.00
2018-06-07T07:05:52.573Z,444.38
2018-06-07T07:06:52.631Z,444.38
2018-06-07T07:07:52.677Z,433.13
2018-06-07T07:08:52.753Z,427.50
2018-06-07T07:09:52.783Z,416.25
2018-06-07T07:10:52.833Z,410.63
2018-06-07T07:11:52.913Z,410.63
2018-06-07T07:12:52.939Z,410.63
2018-06-07T07:13:52.990Z,405.00
2018-06-07T07:14:53.048Z,405.00
2018-06-07T07:15:53.097Z,399.38
2018-06-07T07:16:53.187Z,399.38
2018-06-07T07:17:53.212Z,393.75
2018-06-07T07:18:53.251Z,399.38
2018-06-07T07:19:53.309Z,416.25
2018-06-07T07:20:53.356Z,438.75
2018-06-07T07:21:53.447Z,455.63
2018-06-07T07:22:53.474Z,466.88
2018-06-07T07:23:53.513Z,483.75
2018-06-07T07:24:53.573Z,495.00
2018-06-07T07:25:53.618Z,511.88
2018-06-07T07:26:53.709Z,517.50
2018-06-07T07:27:53.726Z,511.88
2018-06-07T07:28:53.774Z,500.63
2018-06-07T07:29:53.834Z,483.75
2018-06-07T07:30:53.881Z,478.13
2018-06-07T07:31:53.961Z,483.75
2018-06-07T07:32:53.984Z,500.63
2018-06-07T07:33:54.039Z,528.75
2018-06-07T07:34:54.115Z,551.25
2018-06-07T07:35:54.142Z,562.50
2018-06-07T07:36:54.195Z,585.00
2018-06-07T07:37:54.249Z,635.63
2018-06-07T07:38:54.299Z,607.50
2018-06-07T07:39:54.376Z,641.25
2018-06-07T07:40:54.406Z,596.25
2018-06-07T07:41:54.459Z,568.13
2018-06-07T07:42:54.515Z,540.00
2018-06-07T07:43:54.588Z,511.88
2018-06-07T07:44:54.619Z,483.75
2018-06-07T07:45:54.669Z,466.88
2018-06-07T07:46:54.722Z,438.75
2018-06-07T07:47:54.772Z,421.88
2018-06-07T07:48:54.852Z,405.00
2018-06-07T07:49:54.903Z,388.13
2018-06-07T07:50:54.931Z,376.88
2018-06-07T07:51:54.987Z,376.88
2018-06-07T07:52:55.045Z,382.50
2018-06-07T07:53:55.119Z,388.13
2018-06-07T07:54:55.143Z,393.75
2018-06-07T07:55:55.194Z,410.63
2018-06-07T07:56:55.250Z,421.88
2018-06-07T07:57:55.299Z,438.75
2018-06-07T07:58:55.385Z,450.00
2018-06-07T07:59:55.411Z,461.25
2018-06-07T08:00:55.478Z,472.50
2018-06-07T08:01:55.510Z,489.38
2018-06-07T08:02:55.571Z,506.25
2018-06-07T08:03:55.641Z,511.88
2018-06-07T08:04:55.668Z,511.88
2018-06-07T08:05:55.721Z,500.63
2018-06-07T08:06:55.779Z,495.00
2018-06-07T08:07:55.828Z,489.38
2018-06-07T08:08:55.913Z,500.63
2018-06-07T08:09:55.939Z,517.50
2018-06-07T08:10:55.986Z,545.63
2018-06-07T08:11:56.042Z,579.38
2018-06-07T08:12:56.091Z,613.13
2018-06-07T08:13:56.174Z,652.50
2018-06-07T08:14:56.197Z,703.13
2018-06-07T08:15:56.274Z,742.50
2018-06-07T08:16:56.303Z,793.13
2018-06-07T08:17:56.357Z,838.13
2018-06-07T08:18:56.412Z,888.75
2018-06-07T08:19:56.465Z,967.50
2018-06-07T08:20:56.542Z,1046.25
2018-06-07T08:21:56.574Z,1068.75
2018-06-07T08:22:56.627Z,1141.88
2018-06-07T08:23:56.677Z,1035.00
2018-06-07T08:24:56.731Z,877.50
2018-06-07T08:25:56.807Z,821.25
2018-06-07T08:26:56.843Z,815.63
2018-06-07T08:27:56.892Z,804.38
2018-06-07T08:28:56.944Z,798.75
2018-06-07T08:29:57.070Z,781.88
2018-06-07T08:30:57.076Z,765.00
2018-06-07T08:31:57.102Z,759.38
2018-06-07T08:32:57.159Z,748.13
2018-06-07T08:33:57.211Z,748.13
2018-06-07T08:34:57.265Z,742.50
2018-06-07T08:35:57.348Z,736.88
2018-06-07T08:36:57.375Z,742.50
2018-06-07T08:37:57.434Z,765.00
2018-06-07T08:38:57.482Z,916.88
2018-06-07T08:39:57.536Z,832.50
2018-06-07T08:40:57.621Z,826.88
2018-06-07T08:41:57.642Z,843.75
2018-06-07T08:42:57.696Z,911.25
2018-06-07T08:43:57.750Z,928.13
2018-06-07T08:44:57.803Z,894.38
2018-06-07T08:45:57.898Z,866.25
2018-06-07T08:46:57.911Z,866.25
2018-06-07T08:47:57.966Z,900.00
2018-06-07T08:48:58.018Z,894.38
2018-06-07T08:49:58.074Z,894.38
2018-06-07T08:50:58.159Z,900.00
2018-06-07T08:51:58.179Z,894.38
2018-06-07T08:52:58.234Z,871.88
2018-06-07T08:53:58.291Z,866.25
2018-06-07T08:54:58.342Z,866.25
2018-06-07T08:55:58.429Z,866.25
2018-06-07T08:56:58.451Z,860.63
2018-06-07T08:57:58.502Z,855.00
2018-06-07T08:58:58.567Z,843.75
2018-06-07T08:59:58.610Z,838.13
2018-06-07T09:00:58.711Z,838.13
2018-06-07T09:01:58.721Z,843.75
2018-06-07T09:02:58.771Z,843.75
2018-06-07T09:03:58.835Z,849.38
2018-06-07T09:04:58.880Z,838.13
2018-06-07T09:05:58.959Z,821.25
2018-06-07T09:06:59.020Z,798.75
2018-06-07T09:07:59.067Z,787.50
2018-06-07T09:08:59.100Z,770.63
2018-06-07T09:09:59.153Z,781.88
2018-06-07T09:10:59.205Z,815.63
2018-06-07T09:11:59.292Z,843.75
2018-06-07T09:12:59.316Z,905.63
2018-06-07T09:13:59.366Z,1141.88
2018-06-07T09:14:59.432Z,1732.50
2018-06-07T09:15:59.474Z,1659.38
2018-06-07T09:16:59.570Z,1530.00
2018-06-07T09:17:59.585Z,1518.75
2018-06-07T09:18:59.639Z,1985.63
2018-06-07T09:19:59.692Z,1771.88
2018-06-07T09:20:59.749Z,2109.38
2018-06-07T09:21:59.834Z,2081.25
2018-06-07T09:22:59.861Z,2289.38
2018-06-07T09:23:59.910Z,2266.88
2018-06-07T09:24:59.968Z,2064.38
2018-06-07T09:26:00.048Z,1715.63
2018-06-07T09:27:00.115Z,1946.25
2018-06-07T09:28:00.130Z,1783.13
2018-06-07T09:29:00.185Z,1440.00
2018-06-07T09:30:00.243Z,1642.50
2018-06-07T09:31:00.298Z,1710.00
2018-06-07T09:32:00.393Z,1192.50
2018-06-07T09:33:00.412Z,1136.25
2018-06-07T09:34:00.465Z,1366.88
2018-06-07T09:35:00.522Z,860.63
2018-06-07T09:36:00.577Z,871.88
2018-06-07T09:37:00.657Z,855.00
2018-06-07T09:38:00.688Z,871.88
2018-06-07T09:39:00.747Z,939.38
2018-06-07T09:40:00.828Z,961.88
2018-06-07T09:41:00.857Z,945.00
2018-06-07T09:42:00.918Z,911.25
2018-06-07T09:43:00.995Z,894.38
2018-06-07T09:44:01.027Z,877.50
2018-06-07T09:45:01.082Z,877.50
2018-06-07T09:46:01.165Z,860.63
2018-06-07T09:47:01.195Z,877.50
2018-06-07T09:48:01.275Z,933.75
2018-06-07T09:49:01.308Z,916.88
2018-06-07T09:50:01.381Z,905.63
2018-06-07T09:51:01.419Z,922.50
2018-06-07T09:52:01.475Z,933.75
2018-06-07T09:53:01.587Z,945.00
2018-06-07T09:54:01.587Z,939.38
2018-06-07T09:55:01.640Z,961.88
2018-06-07T09:56:01.697Z,945.00
2018-06-07T09:57:01.756Z,967.50
2018-06-07T09:58:01.870Z,950.63
2018-06-07T09:59:01.863Z,956.25
2018-06-07T10:00:01.922Z,950.63
2018-06-07T10:01:01.977Z,939.38
2018-06-07T10:02:02.034Z,933.75
2018-06-07T10:03:02.108Z,950.63
2018-06-07T10:04:02.144Z,900.00
2018-06-07T10:05:02.199Z,871.88
2018-06-07T10:06:02.253Z,843.75
2018-06-07T10:07:02.338Z,888.75
2018-06-07T10:08:02.362Z,855.00
2018-06-07T10:09:02.416Z,945.00
2018-06-07T10:10:02.474Z,1147.50
2018-06-07T10:11:02.527Z,1096.88
2018-06-07T10:12:02.620Z,1198.13
2018-06-07T10:13:02.636Z,1333.13
2018-06-07T10:14:02.697Z,1170.00
2018-06-07T10:15:02.747Z,973.13
2018-06-07T10:16:02.804Z,950.63
2018-06-07T10:17:02.966Z,967.50
2018-06-07T10:18:02.913Z,950.63
2018-06-07T10:19:02.992Z,939.38
2018-06-07T10:20:03.027Z,866.25
2018-06-07T10:21:03.076Z,838.13
2018-06-07T10:22:03.131Z,804.38
2018-06-07T10:23:03.186Z,793.13
2018-06-07T10:24:03.269Z,793.13
2018-06-07T10:25:03.296Z,798.75
2018-06-07T10:26:03.352Z,781.88
2018-06-07T10:27:03.406Z,748.13
2018-06-07T10:28:03.460Z,742.50
2018-06-07T10:29:03.557Z,753.75
2018-06-07T10:30:03.570Z,781.88
2018-06-07T10:31:03.627Z,810.00
2018-06-07T10:32:03.678Z,826.88
2018-06-07T10:33:03.744Z,838.13
2018-06-07T10:34:03.810Z,821.25
2018-06-07T10:35:03.843Z,798.75
2018-06-07T10:36:03.896Z,765.00
2018-06-07T10:37:03.952Z,748.13
2018-06-07T10:38:04.006Z,720.00
2018-06-07T10:39:04.442Z,708.75
2018-06-07T10:40:04.142Z,703.13
2018-06-07T10:41:04.170Z,703.13
2018-06-07T10:42:04.235Z,686.25
2018-06-07T10:43:04.281Z,675.00
2018-06-07T10:44:04.336Z,663.75
2018-06-07T10:45:04.415Z,646.88
2018-06-07T10:46:04.447Z,624.38
2018-06-07T10:47:04.499Z,601.88
2018-06-07T10:48:04.559Z,573.75
2018-06-07T10:49:04.615Z,551.25
2018-06-07T10:50:04.687Z,517.50
2018-06-07T10:51:04.720Z,500.63
2018-06-07T10:52:04.785Z,472.50
2018-06-07T10:53:04.828Z,461.25
2018-06-07T10:54:04.906Z,455.63
2018-06-07T10:55:04.970Z,455.63
2018-06-07T10:56:04.988Z,461.25
2018-06-07T10:57:05.053Z,466.88
2018-06-07T10:58:05.099Z,478.13
2018-06-07T10:59:05.159Z,483.75
2018-06-07T11:00:05.234Z,489.38
2018-06-07T11:01:05.303Z,495.00
2018-06-07T11:02:05.317Z,511.88
2018-06-07T11:03:05.381Z,517.50
2018-06-07T11:04:05.425Z,534.38
2018-06-07T11:05:05.482Z,551.25
2018-06-07T11:06:05.566Z,568.13
2018-06-07T11:07:05.594Z,579.38
2018-06-07T11:08:05.640Z,585.00
2018-06-07T11:09:05.697Z,601.88
2018-06-07T11:10:05.755Z,618.75
2018-06-07T11:11:05.964Z,630.00
2018-06-07T11:12:05.860Z,646.88
2018-06-07T11:13:05.915Z,669.38
2018-06-07T11:14:05.967Z,680.63
2018-06-07T11:15:06.024Z,708.75
2018-06-07T11:16:06.117Z,748.13
2018-06-07T11:17:06.132Z,776.25
2018-06-07T11:18:06.204Z,810.00
2018-06-07T11:19:06.241Z,826.88
2018-06-07T11:20:06.295Z,832.50
2018-06-07T11:21:06.380Z,855.00
2018-06-07T11:22:06.402Z,866.25
2018-06-07T11:23:06.461Z,877.50
2018-06-07T11:24:06.513Z,900.00
2018-06-07T11:25:06.568Z,928.13
2018-06-07T11:26:06.652Z,967.50
2018-06-07T11:27:06.675Z,1012.50
2018-06-07T11:28:06.730Z,1119.38
2018-06-07T11:29:06.788Z,1490.63
2018-06-07T11:30:06.843Z,1305.00
2018-06-07T11:31:06.920Z,1243.13
2018-06-07T11:32:06.974Z,1260.00
2018-06-07T11:33:07.005Z,1423.13
2018-06-07T11:34:07.067Z,1783.13
2018-06-07T11:35:07.116Z,1800.00
2018-06-07T11:36:07.173Z,1423.13
2018-06-07T11:37:07.256Z,1524.38
2018-06-07T11:38:07.289Z,2025.00
2018-06-07T11:39:07.334Z,2289.38
2018-06-07T11:40:07.394Z,2221.88
2018-06-07T11:41:07.447Z,1777.50
2018-06-07T11:42:07.525Z,1822.50
2018-06-07T11:43:07.581Z,1378.13
2018-06-07T11:44:07.614Z,1276.88
2018-06-07T11:45:07.668Z,1344.38
2018-06-07T11:46:07.732Z,1518.75
2018-06-07T11:47:07.780Z,1828.13
2018-06-07T11:48:07.861Z,1850.63
2018-06-07T11:49:07.968Z,1636.88
2018-06-07T11:50:07.951Z,1625.63
2018-06-07T11:51:08.008Z,1693.13
2018-06-07T11:52:08.060Z,1687.50
2018-06-07T11:53:08.140Z,1338.75
2018-06-07T11:54:08.173Z,1383.75
2018-06-07T11:55:08.231Z,1935.00
2018-06-07T11:56:08.287Z,1293.75
2018-06-07T11:57:08.344Z,1192.50
2018-06-07T11:58:08.433Z,1147.50
2018-06-07T11:59:08.454Z,1108.13
2018-06-07T12:00:08.511Z,1080.00
2018-06-07T12:01:08.569Z,1063.13
2018-06-07T12:02:08.622Z,1068.75
2018-06-07T12:03:08.701Z,1158.75
2018-06-07T12:04:08.734Z,1096.88
2018-06-07T12:05:08.788Z,1198.13
2018-06-07T12:06:08.883Z,1288.13
2018-06-07T12:07:08.908Z,1260.00
2018-06-07T12:08:08.983Z,1158.75
2018-06-07T12:09:09.040Z,1130.63
2018-06-07T12:10:09.067Z,1181.25
2018-06-07T12:11:09.123Z,1125.00
2018-06-07T12:12:09.178Z,1102.50
2018-06-07T12:13:09.233Z,1074.38
2018-06-07T12:14:09.316Z,1046.25
2018-06-07T12:15:09.346Z,1029.38
2018-06-07T12:16:09.399Z,1096.88
2018-06-07T12:17:09.453Z,1040.63
2018-06-07T12:18:09.516Z,1018.13
2018-06-07T12:19:09.611Z,1085.63
2018-06-07T12:20:09.619Z,995.63
2018-06-07T12:21:09.683Z,995.63
2018-06-07T12:22:09.732Z,1023.75
2018-06-07T12:23:09.786Z,1080.00
2018-06-07T12:24:09.883Z,1153.13
2018-06-07T12:25:09.904Z,1423.13
2018-06-07T12:26:09.951Z,1164.38
2018-06-07T12:27:10.024Z,1113.75
2018-06-07T12:28:10.063Z,1085.63
2018-06-07T12:29:10.155Z,1096.88
2018-06-07T12:30:10.175Z,1096.88
2018-06-07T12:31:10.237Z,1102.50
2018-06-07T12:32:10.320Z,1305.00
2018-06-07T12:33:10.341Z,1254.38
2018-06-07T12:34:10.421Z,1057.50
2018-06-07T12:35:10.481Z,995.63
2018-06-07T12:36:10.507Z,956.25
2018-06-07T12:37:10.563Z,905.63
2018-06-07T12:38:10.624Z,883.13
2018-06-07T12:39:10.676Z,866.25
2018-06-07T12:40:10.853Z,860.63
2018-06-07T12:41:10.789Z,860.63
2018-06-07T12:42:10.842Z,866.25
2018-06-07T12:43:10.898Z,883.13